Spabunker Twenty — ZDFU5 — position and weather

sailwx.info

Track history (hours):
 
Tides and Currents Weather Stations Pressure Air Temp Water Temp Dewpoint Dewpoint Depression Visibility Wind Speed Wind Dir Waves Ship Positions

Spabunker Twenty

Last reported at 2014-Jul-14 08:26 UTC. Time now 2014-Sep-01 07:33 UTC.
Position N 34°22' W 008°58'.
Warning: this ship's position is 48 days out of date.

Length 77 m; draft 5.5 m.

Type: Ship (hazmat cat C). MMSI: 236053000.

Date/timePositionNaut miles runAvg speedWind from/ knotsBaromVisibWave heightAir tempDewpointWater temp
2014-Jul-14 08:26N 34°22' W 008°58'5 6.0
2014-Jul-14 07:33N 34°25' W 008°53'20 5.8
2014-Jul-14 04:10N 34°37' W 008°34'3 5.7
2014-Jul-14 03:33N 34°39' W 008°30'7 5.6
2014-Jul-14 02:23N 34°43' W 008°24'4 5.4
2014-Jul-14 01:33N 34°45' W 008°20'8 5.2
2014-Jul-14 00:04N 34°50' W 008°12'3 5.5
2014-Jul-13 23:33N 34°52' W 008°09'11 5.5
2014-Jul-13 21:31N 34°58' W 007°58'33 5.5
2014-Jul-13 15:28N 35°16' W 007°23'5 5.6
2014-Jul-13 14:30N 35°19' W 007°18'44 5.4
2014-Jul-13 06:18N 35°45' W 006°34'15 4.8
2014-Jul-13 03:06N 35°54' W 006°19'3 4.7
2014-Jul-13 02:32N 35°56' W 006°16'  
Track history (hours):
 
Tides and Currents Weather Stations Pressure Air Temp Water Temp Dewpoint Dewpoint Depression Visibility Wind Speed Wind Dir Waves Ship Positions

Spabunker Twenty

Last reported at 2014-Jul-14 08:26 UTC. Time now 2014-Sep-01 07:33 UTC.
Position N 34°22' W 008°58'.
Warning: this ship's position is 48 days out of date.

Length 77 m; draft 5.5 m.

Type: Ship (hazmat cat C). MMSI: 236053000.

Date/timePositionNaut miles runAvg speedWind from/ knotsBaromVisibWave heightAir tempDewpointWater temp
2014-Jul-14 08:26N 34°22' W 008°58'5 6.0
2014-Jul-14 07:33N 34°25' W 008°53'20 5.8
2014-Jul-14 04:10N 34°37' W 008°34'3 5.7
2014-Jul-14 03:33N 34°39' W 008°30'7 5.6
2014-Jul-14 02:23N 34°43' W 008°24'4 5.4
2014-Jul-14 01:33N 34°45' W 008°20'8 5.2
2014-Jul-14 00:04N 34°50' W 008°12'3 5.5
2014-Jul-13 23:33N 34°52' W 008°09'11 5.5
2014-Jul-13 21:31N 34°58' W 007°58'33 5.5
2014-Jul-13 15:28N 35°16' W 007°23'5 5.6
2014-Jul-13 14:30N 35°19' W 007°18'44 5.4
2014-Jul-13 06:18N 35°45' W 006°34'15 4.8
2014-Jul-13 03:06N 35°54' W 006°19'3 4.7
2014-Jul-13 02:32N 35°56' W 006°16'  

Dump ship's entire track history